Time;durP1;ratioP1;P1;durP2;ratioP2;P2;SDS_P1;SDS_P2;PMS_P1;PMS_P2;Temp;Humidity;BMP_temperature;BMP_pressure;BME280_temperature;BME280_humidity;BME280_pressure;Samples;Min_cycle;Max_cycle;Signal;HPM_P1;HPM_P2
2021/01/23 00:01:44;;;;;;;4.03;2.75;;;;;;;18.83;46.39;99549.44;5082378;28;20107;-78
2021/01/23 00:04:09;;;;;;;4.20;2.88;;;;;;;18.82;46.13;99537.25;5083787;28;20036;-78
2021/01/23 00:06:35;;;;;;;3.85;2.85;;;;;;;18.79;46.43;99532.09;5052981;28;20032;-79
2021/01/23 00:09:01;;;;;;;13.80;2.83;;;;;;;18.79;46.21;99537.34;5043190;28;20111;-79
2021/01/23 00:11:26;;;;;;;5.82;3.00;;;;;;;18.81;46.39;99539.91;5064370;28;20116;-79
2021/01/23 00:13:51;;;;;;;6.03;2.88;;;;;;;18.80;46.42;99535.56;5058415;28;20390;-79
2021/01/23 00:16:17;;;;;;;3.95;2.35;;;;;;;18.77;46.08;99528.66;5049551;28;20059;-79
2021/01/23 00:18:43;;;;;;;4.03;2.67;;;;;;;18.75;46.30;99530.47;5036518;28;20394;-78
2021/01/23 00:21:09;;;;;;;3.85;2.35;;;;;;;18.76;46.21;99531.31;5053733;28;20047;-78
2021/01/23 00:23:35;;;;;;;3.60;1.98;;;;;;;18.77;46.11;99527.81;5063460;28;20028;-78
2021/01/23 00:26:01;;;;;;;3.50;2.65;;;;;;;18.79;46.23;99531.25;5077565;28;20033;-78
2021/01/23 00:28:27;;;;;;;3.75;2.40;;;;;;;18.77;45.91;99533.03;5080588;28;20096;-78
2021/01/23 00:30:53;;;;;;;3.17;2.38;;;;;;;18.75;46.17;99519.13;5054694;28;20036;-72
2021/01/23 00:33:19;;;;;;;3.85;2.20;;;;;;;18.74;46.26;99513.03;5070426;28;20056;-72
2021/01/23 00:35:45;;;;;;;5.35;2.53;;;;;;;18.62;46.18;99495.03;5079333;28;20052;-72
2021/01/23 00:38:11;;;;;;;4.82;2.33;;;;;;;18.69;46.05;99503.59;5043692;28;20502;-72
2021/01/23 00:40:37;;;;;;;3.22;2.33;;;;;;;18.69;46.08;99503.59;5062226;28;20115;-72
2021/01/23 00:43:02;;;;;;;3.10;2.28;;;;;;;18.71;46.28;99496.53;5056443;28;20119;-71
2021/01/23 00:45:28;;;;;;;2.40;1.95;;;;;;;18.59;46.09;99470.66;5065275;28;20120;-72
2021/01/23 00:47:53;;;;;;;4.57;3.38;;;;;;;18.57;46.09;99468.91;5076512;28;20421;-72
2021/01/23 00:50:18;;;;;;;3.83;2.55;;;;;;;18.70;45.99;99490.44;5044492;28;20032;-72
2021/01/23 00:52:44;;;;;;;3.95;2.63;;;;;;;18.70;46.02;99489.56;5072584;28;20025;-72
2021/01/23 00:55:10;;;;;;;4.82;3.15;;;;;;;18.69;46.23;99493.13;5078341;28;20470;-72
2021/01/23 00:57:36;;;;;;;3.88;2.25;;;;;;;18.69;46.09;99486.13;5059587;28;20056;-72
2021/01/23 01:00:01;;;;;;;5.70;2.85;;;;;;;18.68;46.01;99486.16;5081246;28;20085;-72
2021/01/23 01:02:27;;;;;;;3.38;1.90;;;;;;;18.69;45.93;99483.50;5086539;28;20028;-72
2021/01/23 01:04:52;;;;;;;3.20;2.15;;;;;;;18.59;45.99;99479.38;5078210;28;20036;-71
2021/01/23 01:07:18;;;;;;;2.72;1.95;;;;;;;18.54;46.18;99460.31;5085113;28;20031;-71
2021/01/23 01:09:43;;;;;;;3.08;2.25;;;;;;;18.57;46.18;99474.16;5082058;28;20028;-71
2021/01/23 01:12:08;;;;;;;4.20;2.80;;;;;;;18.67;45.94;99487.91;5077848;28;20042;-72
2021/01/23 01:14:34;;;;;;;2.92;2.13;;;;;;;18.54;45.83;99468.16;5057776;28;20044;-72
2021/01/23 01:16:59;;;;;;;4.72;2.63;;;;;;;18.64;46.11;99487.13;5063431;28;20033;-72
2021/01/23 01:19:24;;;;;;;4.57;3.60;;;;;;;18.60;46.00;99473.25;5058976;28;20040;-72
2021/01/23 01:21:50;;;;;;;4.47;2.22;;;;;;;18.55;45.90;99467.28;5075928;28;20070;-71
2021/01/23 01:24:15;;;;;;;2.40;1.70;;;;;;;18.52;46.03;99469.97;5066083;28;20482;-72
2021/01/23 01:26:41;;;;;;;4.32;2.42;;;;;;;18.50;45.91;99462.16;5088011;28;20048;-72
2021/01/23 01:29:06;;;;;;;4.78;2.92;;;;;;;18.46;45.88;99457.03;5081528;28;20534;-72
2021/01/23 01:31:31;;;;;;;3.80;2.25;;;;;;;18.49;45.92;99457.81;5072179;28;20482;-72
2021/01/23 01:33:57;;;;;;;3.25;2.53;;;;;;;18.56;46.09;99464.56;5084474;28;20032;-71
2021/01/23 01:36:22;;;;;;;3.22;2.03;;;;;;;18.46;45.82;99459.63;5066591;28;20061;-71
2021/01/23 01:38:48;;;;;;;3.88;2.60;;;;;;;18.54;45.95;99460.31;5083303;28;20051;-71
2021/01/23 01:41:15;;;;;;;3.55;1.95;;;;;;;18.56;45.94;99463.75;5063625;28;20028;-72
2021/01/23 01:43:41;;;;;;;4.82;2.60;;;;;;;18.59;46.04;99466.28;5084229;28;20046;-72
2021/01/23 01:46:08;;;;;;;4.00;2.47;;;;;;;18.52;45.89;99454.25;5063860;28;20033;-71
2021/01/23 01:48:35;;;;;;;3.65;2.70;;;;;;;18.59;45.94;99461.06;5059884;28;20020;-71
2021/01/23 01:51:00;;;;;;;3.42;2.08;;;;;;;18.57;45.89;99465.44;5080142;28;20025;-71
2021/01/23 01:53:26;;;;;;;2.85;2.10;;;;;;;18.57;45.63;99455.81;5058304;28;20078;-72
2021/01/23 01:55:51;;;;;;;4.75;2.55;;;;;;;18.55;46.09;99455.03;5066265;28;20025;-79
2021/01/23 01:58:18;;;;;;;2.65;1.88;;;;;;;18.56;46.00;99448.03;5050246;28;20052;-78
2021/01/23 02:00:44;;;;;;;3.58;2.28;;;;;;;18.55;45.68;99456.81;5073840;28;20024;-79
2021/01/23 02:03:30;;;;;;;3.22;1.95;;;;;;;18.56;45.80;99451.50;5062580;28;20497;-78
2021/01/23 02:06:17;;;;;;;2.38;1.83;;;;;;;18.51;45.72;99450.78;5062579;28;20035;-78
2021/01/23 02:08:55;;;;;;;2.60;2.00;;;;;;;18.55;45.73;99448.94;5073178;28;20031;-80
2021/01/23 02:11:57;;;;;;;2.92;2.20;;;;;;;18.52;45.95;99438.53;5072782;28;20027;-79
2021/01/23 02:14:30;;;;;;;3.35;2.05;;;;;;;18.51;45.70;99431.59;5080112;28;20033;-79
2021/01/23 02:17:02;;;;;;;5.07;1.83;;;;;;;18.50;46.05;99433.34;5075711;28;20120;-79
2021/01/23 02:19:33;;;;;;;2.75;2.20;;;;;;;18.51;45.76;99436.81;5081057;28;20035;-78
2021/01/23 02:22:05;;;;;;;3.13;1.80;;;;;;;18.52;45.79;99446.41;5079770;28;20078;-79
2021/01/23 02:24:30;;;;;;;4.63;2.42;;;;;;;18.49;45.73;99434.25;5056483;28;20364;-79
2021/01/23 02:27:31;;;;;;;4.13;3.22;;;;;;;18.50;45.78;99433.34;5057873;28;20027;-78
2021/01/23 02:30:40;;;;;;;3.03;2.40;;;;;;;18.49;45.77;99436.00;5034033;28;20032;-79
2021/01/23 02:33:09;;;;;;;2.55;2.13;;;;;;;18.46;45.63;99428.22;4991309;28;20077;-79
2021/01/23 02:35:36;;;;;;;3.38;2.08;;;;;;;18.48;45.71;99440.38;5073834;28;20552;-79
2021/01/23 02:38:03;;;;;;;2.78;2.10;;;;;;;18.48;45.75;99432.53;5075660;28;20033;-78
2021/01/23 02:40:28;;;;;;;3.53;2.10;;;;;;;18.46;45.61;99431.72;5046500;28;20058;-79
2021/01/23 02:42:53;;;;;;;3.20;2.20;;;;;;;18.43;45.81;99423.09;5076001;28;20431;-78
2021/01/23 02:45:20;;;;;;;2.80;1.92;;;;;;;18.43;45.68;99423.09;5042786;28;20497;-79
2021/01/23 02:47:46;;;;;;;4.60;2.70;;;;;;;18.41;45.90;99423.13;5048007;28;20478;-79
2021/01/23 02:50:12;;;;;;;3.13;2.25;;;;;;;18.44;46.14;99427.41;5057428;28;20082;-79
2021/01/23 02:52:53;;;;;;;2.90;2.17;;;;;;;18.47;45.53;99435.19;5057295;28;20032;-79
2021/01/23 02:55:20;;;;;;;2.70;1.98;;;;;;;18.43;45.68;99420.47;5074434;28;20028;-79
2021/01/23 02:57:48;;;;;;;3.67;2.33;;;;;;;18.42;45.74;99411.78;5057261;28;20044;-78
2021/01/23 03:00:15;;;;;;;4.32;2.70;;;;;;;18.44;45.73;99406.47;5073768;28;20033;-79
2021/01/23 03:02:49;;;;;;;3.80;2.42;;;;;;;18.42;45.81;99395.22;5064824;28;20077;-79
2021/01/23 03:05:16;;;;;;;3.10;1.90;;;;;;;18.39;45.79;99392.66;5078163;28;20390;-79
2021/01/23 03:07:42;;;;;;;3.00;2.40;;;;;;;18.43;45.74;99408.25;5082071;28;20051;-79
2021/01/23 03:10:09;;;;;;;2.58;2.03;;;;;;;18.38;45.91;99390.94;5069821;28;20033;-78
2021/01/23 03:12:35;;;;;;;3.03;2.47;;;;;;;18.40;45.88;99395.25;5057738;28;20449;-78
2021/01/23 03:15:02;;;;;;;5.45;2.33;;;;;;;18.37;45.72;99392.69;5076111;28;20020;-79
2021/01/23 03:17:27;;;;;;;3.20;2.00;;;;;;;18.38;45.68;99393.56;5057010;28;20115;-79
2021/01/23 03:19:52;;;;;;;3.20;2.33;;;;;;;18.39;45.61;99398.75;5046546;28;20063;-79
2021/01/23 03:22:18;;;;;;;3.28;2.25;;;;;;;18.40;45.83;99402.25;5045155;28;20019;-79
2021/01/23 03:24:44;;;;;;;3.28;2.38;;;;;;;18.37;45.40;99392.69;5071193;28;20035;-78
2021/01/23 03:27:09;;;;;;;3.35;2.33;;;;;;;18.39;45.54;99398.75;5066276;28;20029;-78
2021/01/23 03:29:35;;;;;;;3.40;1.92;;;;;;;18.39;45.80;99387.44;5085787;28;20040;-78
2021/01/23 03:32:00;;;;;;;3.40;2.00;;;;;;;18.34;45.84;99386.69;5068623;28;20036;-79
2021/01/23 03:34:25;;;;;;;3.45;2.08;;;;;;;18.37;45.71;99394.47;5060416;28;20040;-78
2021/01/23 03:36:51;;;;;;;3.53;2.33;;;;;;;18.37;45.57;99391.84;5024754;28;20029;-77
2021/01/23 03:39:16;;;;;;;3.70;2.50;;;;;;;18.36;45.78;99393.59;5071941;28;20028;-79
2021/01/23 03:41:43;;;;;;;3.65;2.78;;;;;;;18.33;45.83;99377.97;5040974;28;20033;-79
2021/01/23 03:44:08;;;;;;;3.00;2.30;;;;;;;18.36;45.88;99377.91;5056900;28;20103;-79
2021/01/23 03:46:34;;;;;;;2.60;2.08;;;;;;;18.33;45.62;99370.13;5074399;28;20550;-79
2021/01/23 03:48:59;;;;;;;3.10;2.42;;;;;;;18.33;45.42;99367.50;5080979;28;20033;-78
2021/01/23 03:51:26;;;;;;;3.53;2.38;;;;;;;18.33;45.51;99364.88;5075292;28;20036;-79
2021/01/23 03:53:53;;;;;;;3.35;2.35;;;;;;;18.34;45.63;99366.63;5040714;28;20112;-79
2021/01/23 03:56:18;;;;;;;4.03;2.72;;;;;;;18.34;45.55;99365.75;5057448;28;20074;-79
2021/01/23 03:58:44;;;;;;;3.72;2.58;;;;;;;18.31;45.82;99366.69;5056886;28;20028;-79
2021/01/23 04:01:10;;;;;;;3.70;2.28;;;;;;;18.33;45.89;99366.66;5056977;28;20478;-79
2021/01/23 04:03:35;;;;;;;4.00;2.55;;;;;;;18.34;45.36;99371.00;5071788;28;20040;-79
2021/01/23 04:06:01;;;;;;;2.70;2.10;;;;;;;18.30;45.75;99359.75;5037966;28;20083;-79
2021/01/23 04:08:26;;;;;;;3.08;2.78;;;;;;;18.31;45.78;99361.44;5060571;28;20427;-79
2021/01/23 04:10:52;;;;;;;3.58;2.47;;;;;;;18.31;45.90;99361.44;5063530;28;20051;-79
2021/01/23 04:13:17;;;;;;;2.90;2.15;;;;;;;18.33;45.53;99356.19;5056083;28;20111;-79
2021/01/23 04:15:43;;;;;;;2.58;2.20;;;;;;;18.29;45.92;99346.72;5056348;28;20025;-79
2021/01/23 04:18:09;;;;;;;3.00;2.20;;;;;;;18.27;45.65;99344.16;5055757;28;20017;-79
2021/01/23 04:20:34;;;;;;;3.35;2.50;;;;;;;18.25;45.73;99345.94;5047127;28;20039;-79
2021/01/23 04:22:59;;;;;;;1.95;1.63;;;;;;;18.27;45.60;99348.53;5053306;28;20036;-79
2021/01/23 04:25:25;;;;;;;2.58;2.30;;;;;;;18.26;45.72;99338.94;5039286;28;20073;-79
2021/01/23 04:27:50;;;;;;;2.90;1.73;;;;;;;18.28;45.79;99339.78;5052091;28;20052;-79
2021/01/23 04:30:16;;;;;;;2.83;2.50;;;;;;;18.25;45.74;99338.09;5055630;28;20031;-79
2021/01/23 04:32:41;;;;;;;3.85;2.75;;;;;;;18.27;45.71;99335.44;5046696;28;20062;-79
2021/01/23 04:35:09;;;;;;;3.10;2.00;;;;;;;18.23;45.58;99337.28;5048477;28;20020;-79
2021/01/23 04:37:39;;;;;;;2.50;2.10;;;;;;;18.26;45.71;99334.56;5079325;28;20016;-79
2021/01/23 04:40:06;;;;;;;3.13;2.65;;;;;;;18.25;45.78;99335.47;5054415;28;20024;-79
2021/01/23 04:42:32;;;;;;;3.03;2.40;;;;;;;18.24;45.85;99339.00;5076118;28;20020;-78
2021/01/23 04:44:58;;;;;;;6.15;2.92;;;;;;;18.26;45.83;99339.81;5044482;28;20032;-79
2021/01/23 04:47:24;;;;;;;2.90;1.92;;;;;;;18.24;45.83;99343.38;5058285;28;20513;-79
2021/01/23 04:49:50;;;;;;;3.83;2.40;;;;;;;18.24;45.93;99332.91;5029832;28;20031;-79
2021/01/23 04:52:15;;;;;;;2.63;2.03;;;;;;;18.23;45.75;99341.66;5084206;28;20028;-79
2021/01/23 04:54:43;;;;;;;3.03;2.50;;;;;;;18.21;46.14;99344.28;5055292;28;20029;-79
2021/01/23 04:57:09;;;;;;;2.92;2.17;;;;;;;18.18;45.80;99334.75;5061007;28;20060;-80
2021/01/23 04:59:34;;;;;;;2.83;2.03;;;;;;;18.20;45.71;99343.44;5065848;28;20032;-79
2021/01/23 05:02:19;;;;;;;2.85;2.25;;;;;;;18.21;45.94;99341.69;5085898;28;20439;-79
2021/01/23 05:04:48;;;;;;;3.85;2.22;;;;;;;18.21;45.71;99331.22;5061494;28;20016;-79
2021/01/23 05:07:25;;;;;;;3.83;2.63;;;;;;;18.20;45.94;99325.13;5072392;28;20020;-79
2021/01/23 05:09:51;;;;;;;3.22;2.25;;;;;;;18.15;45.85;99320.94;5073459;28;20021;-79
2021/01/23 05:12:46;;;;;;;2.75;1.98;;;;;;;18.17;45.99;99320.00;5054927;28;20501;-79
2021/01/23 05:15:32;;;;;;;3.10;1.75;;;;;;;18.17;45.92;99317.38;5073103;28;20036;-80
2021/01/23 05:17:58;;;;;;;3.15;2.15;;;;;;;18.16;45.66;99320.91;5047434;28;20033;-79
2021/01/23 05:20:43;;;;;;;2.38;2.13;;;;;;;18.16;45.61;99328.75;5071033;28;20050;-79
2021/01/23 05:23:20;;;;;;;3.22;2.03;;;;;;;18.17;45.76;99324.38;5073418;28;20374;-79
2021/01/23 05:26:00;;;;;;;2.75;2.25;;;;;;;18.16;45.86;99330.50;5055446;28;20025;-79
2021/01/23 05:28:36;;;;;;;2.63;1.92;;;;;;;18.15;45.66;99318.31;5074922;28;20060;-80
2021/01/23 05:31:04;;;;;;;3.10;2.17;;;;;;;18.15;45.65;99321.78;5080155;28;20027;-79
2021/01/23 05:33:31;;;;;;;3.75;1.80;;;;;;;18.15;45.78;99315.72;5072694;28;20074;-79
2021/01/23 05:36:05;;;;;;;2.15;1.95;;;;;;;18.15;45.91;99313.09;5071643;28;20020;-80
2021/01/23 05:38:34;;;;;;;2.90;1.88;;;;;;;18.09;45.84;99314.09;5059022;28;20482;-79
2021/01/23 05:41:06;;;;;;;3.55;2.38;;;;;;;18.15;45.77;99315.72;5071508;28;20389;-80
2021/01/23 05:43:35;;;;;;;3.65;2.53;;;;;;;18.13;45.85;99315.75;5055060;28;20063;-79
2021/01/23 05:46:09;;;;;;;2.90;1.95;;;;;;;18.11;46.03;99320.16;5081368;28;20030;-79
2021/01/23 05:48:36;;;;;;;2.75;1.75;;;;;;;18.09;45.81;99314.09;5065825;28;20021;-80
2021/01/23 05:51:03;;;;;;;3.08;2.42;;;;;;;18.10;45.76;99312.34;5052048;28;20522;-79
2021/01/23 05:53:32;;;;;;;2.65;1.95;;;;;;;18.08;46.18;99309.75;5067358;28;20028;-79
2021/01/23 05:56:01;;;;;;;3.58;2.20;;;;;;;18.06;46.02;99306.31;5058714;28;20024;-79
2021/01/23 05:58:31;;;;;;;2.38;1.75;;;;;;;18.06;45.92;99315.94;5049785;28;20049;-79
2021/01/23 06:00:58;;;;;;;1.55;1.40;;;;;;;18.09;45.89;99321.09;5054627;28;20056;-79
2021/01/23 06:03:33;;;;;;;2.38;1.80;;;;;;;18.08;46.09;99315.00;5058005;28;20032;-78
2021/01/23 06:05:58;;;;;;;2.10;1.45;;;;;;;18.09;45.72;99318.47;5074472;28;20032;-79
2021/01/23 06:08:45;;;;;;;2.40;2.00;;;;;;;18.06;45.95;99316.78;5082595;28;20467;-79
2021/01/23 06:11:19;;;;;;;2.28;1.85;;;;;;;18.06;45.92;99319.41;5059929;28;20027;-79
2021/01/23 06:13:56;;;;;;;3.70;1.85;;;;;;;18.07;45.70;99315.91;5066915;28;20038;-79
2021/01/23 06:16:37;;;;;;;2.38;1.50;;;;;;;18.06;45.90;99318.56;5087886;28;20150;-79
2021/01/23 06:19:05;;;;;;;2.50;1.63;;;;;;;18.06;45.78;99334.25;5066579;28;20033;-79
2021/01/23 06:21:42;;;;;;;3.42;2.10;;;;;;;18.05;45.73;99343.84;5068316;28;20020;-79
2021/01/23 06:24:12;;;;;;;2.42;1.95;;;;;;;18.04;45.99;99342.16;5074880;28;20081;-79
2021/01/23 06:26:53;;;;;;;2.10;1.67;;;;;;;18.09;45.78;99337.66;5044467;28;20367;-78
2021/01/23 06:29:39;;;;;;;2.00;1.60;;;;;;;18.24;45.52;99328.53;5070159;28;20047;-78
2021/01/23 06:32:14;;;;;;;4.78;1.67;;;;;;;18.33;45.35;99333.50;5067363;28;20032;-78
2021/01/23 06:34:46;;;;;;;1.92;1.50;;;;;;;18.33;45.50;99332.63;5067126;28;20053;-77
2021/01/23 06:37:24;;;;;;;1.98;1.63;;;;;;;18.29;45.65;99326.66;5060726;28;20036;-77
2021/01/23 06:39:55;;;;;;;2.22;1.65;;;;;;;18.40;45.33;99324.56;5062791;28;20413;-78
2021/01/23 06:42:22;;;;;;;2.65;2.30;;;;;;;18.44;45.21;99320.09;5084956;28;20021;-79
2021/01/23 06:44:47;;;;;;;2.22;1.70;;;;;;;18.38;45.60;99321.16;5076873;28;20085;-78
2021/01/23 06:47:12;;;;;;;2.40;1.60;;;;;;;18.39;45.53;99320.25;5062051;28;20466;-79
2021/01/23 06:49:44;;;;;;;2.50;1.70;;;;;;;18.43;45.14;99315.78;5026218;28;20024;-72
2021/01/23 06:52:10;;;;;;;1.85;1.58;;;;;;;18.47;45.41;99320.00;5079430;28;20367;-72
2021/01/23 06:54:36;;;;;;;2.10;1.75;;;;;;;18.47;45.42;99335.72;5081057;28;20037;-72
2021/01/23 06:57:04;;;;;;;2.42;1.48;;;;;;;18.48;45.24;99329.59;5058346;28;20076;-72
2021/01/23 06:59:31;;;;;;;1.85;1.30;;;;;;;18.47;45.09;99325.25;5059406;28;20028;-72
2021/01/23 07:02:01;;;;;;;3.30;1.65;;;;;;;18.52;45.40;99350.41;5057202;28;20027;-72
2021/01/23 07:04:31;;;;;;;1.48;1.23;;;;;;;18.48;45.55;99343.53;5084231;28;20096;-73
2021/01/23 07:06:58;;;;;;;1.98;1.48;;;;;;;18.55;45.42;99357.31;5076872;28;20042;-78
2021/01/23 07:09:43;;;;;;;1.70;1.13;;;;;;;18.57;45.24;99358.09;5057816;28;20032;-78
2021/01/23 07:12:08;;;;;;;2.08;1.30;;;;;;;18.56;45.40;99364.28;5080429;28;20027;-78
2021/01/23 07:14:33;;;;;;;1.83;1.40;;;;;;;18.58;45.43;99367.72;5062460;28;20032;-78
2021/01/23 07:16:59;;;;;;;3.17;1.55;;;;;;;18.69;45.26;99370.91;5055779;28;20494;-78
2021/01/23 07:19:27;;;;;;;1.88;1.30;;;;;;;18.69;45.22;99362.19;5053131;28;20020;-78
2021/01/23 07:21:56;;;;;;;1.92;1.30;;;;;;;18.70;45.10;99371.72;5073044;28;20028;-78
2021/01/23 07:24:22;;;;;;;3.13;1.33;;;;;;;18.72;45.20;99364.69;5076644;28;20028;-79
2021/01/23 07:26:47;;;;;;;2.10;1.30;;;;;;;18.80;45.04;99366.22;5050338;28;20039;-80
2021/01/23 07:29:13;;;;;;;1.58;1.25;;;;;;;18.81;45.15;99373.16;5035068;28;20030;-78
2021/01/23 07:31:39;;;;;;;2.83;1.20;;;;;;;18.79;45.01;99374.09;5049212;28;20364;-78
2021/01/23 07:34:12;;;;;;;1.98;1.35;;;;;;;18.82;44.96;99374.88;5087227;28;20112;-79
2021/01/23 07:36:38;;;;;;;;;;;;;;;18.85;44.85;99387.00;5080766;28;20035;-79
2021/01/23 07:39:06;;;;;;;4.03;2.20;;;;;;;18.80;45.03;99379.31;5074246;28;20281;-78
2021/01/23 07:41:34;;;;;;;3.53;1.65;;;;;;;18.94;44.95;99388.50;5083898;28;20028;-80
2021/01/23 07:44:01;;;;;;;4.28;2.00;;;;;;;18.89;45.02;99384.25;5061519;28;20099;-74
2021/01/23 07:46:39;;;;;;;4.57;2.75;;;;;;;18.89;45.10;99399.13;5064027;28;20024;-77
2021/01/23 07:49:05;;;;;;;8.43;2.75;;;;;;;18.92;45.48;99397.28;5085992;28;20093;-76
2021/01/23 07:51:32;;;;;;;7.85;3.53;;;;;;;18.99;45.37;99400.56;5077943;28;20043;-76
2021/01/23 07:54:08;;;;;;;5.57;3.10;;;;;;;18.93;45.50;99398.13;5030478;28;20025;-76
2021/01/23 07:56:34;;;;;;;5.68;3.40;;;;;;;18.90;45.54;99390.34;5078417;28;20049;-74
2021/01/23 07:59:00;;;;;;;6.28;3.28;;;;;;;18.97;45.51;99389.25;5087663;28;20440;-72
2021/01/23 08:01:26;;;;;;;16.45;3.97;;;;;;;19.01;45.56;99395.28;5043086;28;20499;-72
2021/01/23 08:03:51;;;;;;;7.68;3.45;;;;;;;18.95;45.71;99401.56;5059845;28;20024;-72
2021/01/23 08:06:21;;;;;;;6.97;4.15;;;;;;;18.98;45.72;99390.97;5037910;28;20170;-71
2021/01/23 08:08:47;;;;;;;8.40;3.70;;;;;;;18.99;45.56;99397.06;5028753;28;20039;-71
2021/01/23 08:11:35;;;;;;;6.55;3.45;;;;;;;18.96;45.51;99397.16;5025083;28;20033;-72
2021/01/23 08:14:14;;;;;;;5.90;3.72;;;;;;;18.96;45.75;99407.63;5041867;28;20033;-72
2021/01/23 08:16:53;;;;;;;8.50;3.60;;;;;;;19.07;45.75;99408.19;5016182;28;20513;-71
2021/01/23 08:19:19;;;;;;;9.43;4.13;;;;;;;19.03;45.87;99417.91;5035839;28;20398;-71
2021/01/23 08:22:07;;;;;;;6.90;3.50;;;;;;;19.00;45.80;99425.84;5054893;28;20121;-73
2021/01/23 08:24:32;;;;;;;7.50;3.35;;;;;;;19.07;45.68;99421.31;5054721;28;20025;-77
2021/01/23 08:27:18;;;;;;;5.93;3.20;;;;;;;19.05;45.73;99423.09;5061763;28;20466;-79
2021/01/23 08:29:45;;;;;;;9.20;3.35;;;;;;;19.01;45.88;99421.47;5041278;28;20123;-79
2021/01/23 08:32:11;;;;;;;7.32;3.55;;;;;;;19.04;45.81;99416.16;5056211;28;20028;-78
2021/01/23 08:34:36;;;;;;;8.60;3.75;;;;;;;19.04;45.65;99417.00;5058671;28;20486;-79
2021/01/23 08:37:02;;;;;;;7.00;3.33;;;;;;;19.03;45.72;99415.28;5058042;28;20040;-78
2021/01/23 08:39:29;;;;;;;5.38;3.47;;;;;;;19.02;45.90;99423.19;5074511;28;20064;-78
2021/01/23 08:41:54;;;;;;;9.82;3.97;;;;;;;19.11;45.71;99422.91;5057197;28;20032;-79
2021/01/23 08:44:20;;;;;;;8.00;3.42;;;;;;;19.05;45.61;99415.25;5039873;28;20028;-78
2021/01/23 08:46:45;;;;;;;5.63;2.60;;;;;;;19.01;45.68;99406.59;5037108;28;20482;-78
2021/01/23 08:49:11;;;;;;;7.38;2.92;;;;;;;19.09;45.75;99415.09;5014655;28;20471;-78
2021/01/23 08:51:37;;;;;;;5.65;3.05;;;;;;;19.07;45.81;99414.31;5041953;28;20364;-79
2021/01/23 08:54:03;;;;;;;8.15;3.67;;;;;;;19.08;45.71;99407.31;5054882;28;20085;-77
2021/01/23 08:56:28;;;;;;;5.50;3.88;;;;;;;19.11;45.59;99410.66;5039677;28;20165;-79
2021/01/23 08:58:54;;;;;;;5.22;2.88;;;;;;;19.07;45.51;99390.72;5044242;28;20047;-78
2021/01/23 09:01:19;;;;;;;6.47;3.15;;;;;;;19.15;45.57;99414.06;5057885;28;20028;-78
2021/01/23 09:03:44;;;;;;;7.03;2.40;;;;;;;19.19;45.66;99406.06;5053705;28;20040;-80
2021/01/23 09:06:10;;;;;;;6.75;2.83;;;;;;;19.13;45.68;99406.25;5071130;28;20105;-78
2021/01/23 09:08:35;;;;;;;6.80;3.13;;;;;;;19.18;45.88;99417.44;5060219;28;20020;-79
2021/01/23 09:11:01;;;;;;;8.93;3.20;;;;;;;19.22;45.81;99426.06;5061350;28;20097;-79
2021/01/23 09:13:26;;;;;;;4.53;2.55;;;;;;;19.21;45.97;99427.00;5071372;28;20040;-79
2021/01/23 09:15:52;;;;;;;5.40;2.92;;;;;;;19.14;46.01;99434.16;5056521;28;20078;-79
2021/01/23 09:18:17;;;;;;;9.20;3.03;;;;;;;19.15;45.92;99427.16;5074988;28;20028;-79
2021/01/23 09:20:43;;;;;;;6.97;2.95;;;;;;;19.13;46.17;99432.44;5088768;28;20093;-78
2021/01/23 09:23:08;;;;;;;3.30;2.20;;;;;;;19.14;46.20;99438.53;5075066;28;20044;-79
2021/01/23 09:25:34;;;;;;;6.22;2.78;;;;;;;19.09;45.96;99435.19;5057502;28;20436;-72
2021/01/23 09:27:59;;;;;;;6.65;2.45;;;;;;;19.04;46.25;99422.25;5055925;28;20029;-72
2021/01/23 09:30:24;;;;;;;5.10;2.72;;;;;;;19.15;46.05;99428.03;5035897;28;20051;-72
2021/01/23 09:32:50;;;;;;;3.90;2.55;;;;;;;19.15;46.19;99430.63;5043027;28;20130;-73
2021/01/23 09:35:17;;;;;;;4.03;2.22;;;;;;;19.13;46.10;99423.72;5071254;28;20384;-72
2021/01/23 09:37:42;;;;;;;12.95;3.28;;;;;;;19.14;45.73;99425.44;5046725;28;20119;-72
2021/01/23 09:40:11;;;;;;;8.05;2.42;;;;;;;19.16;45.99;99439.38;5062282;28;20035;-71
2021/01/23 09:42:38;;;;;;;4.07;2.20;;;;;;;19.14;46.31;99439.41;5075790;28;20087;-72
2021/01/23 09:45:05;;;;;;;3.90;2.33;;;;;;;19.19;45.98;99442.75;5078185;28;20027;-72
2021/01/23 09:47:30;;;;;;;6.28;2.15;;;;;;;19.26;45.81;99440.78;5062996;28;20028;-72
2021/01/23 09:49:56;;;;;;;6.15;2.75;;;;;;;19.25;46.20;99444.31;5044313;28;20030;-72
2021/01/23 09:52:22;;;;;;;4.97;2.10;;;;;;;19.19;46.25;99442.75;5073337;28;20028;-72
2021/01/23 09:54:47;;;;;;;5.22;1.70;;;;;;;19.23;46.14;99439.13;5057229;28;20035;-72
2021/01/23 09:57:12;;;;;;;7.30;2.28;;;;;;;19.24;46.25;99446.06;5070279;28;20060;-71
2021/01/23 09:59:38;;;;;;;3.42;1.77;;;;;;;19.15;46.21;99435.88;5065076;28;20600;-71
2021/01/23 10:02:03;;;;;;;3.75;1.75;;;;;;;19.11;45.87;99425.53;5066236;28;20552;-72
2021/01/23 10:04:29;;;;;;;3.78;1.88;;;;;;;19.20;46.39;99438.38;5072757;28;20045;-72
2021/01/23 10:06:57;;;;;;;3.33;1.70;;;;;;;19.23;46.29;99446.13;5085165;28;20032;-75
2021/01/23 10:09:22;;;;;;;4.85;1.85;;;;;;;19.19;46.16;99450.63;5069095;28;20044;-73
2021/01/23 10:11:48;;;;;;;6.97;1.80;;;;;;;19.24;46.13;99458.31;5058329;28;20428;-72
2021/01/23 10:14:14;;;;;;;5.43;1.98;;;;;;;19.24;46.06;99451.31;5058383;28;20367;-73
2021/01/23 10:16:40;;;;;;;5.15;1.88;;;;;;;19.21;46.12;99440.09;5058064;28;20032;-73
2021/01/23 10:19:05;;;;;;;5.25;1.80;;;;;;;19.26;46.26;99438.16;5091408;28;20035;-73
2021/01/23 10:21:31;;;;;;;4.10;1.35;;;;;;;19.31;46.44;99446.78;5071902;28;20033;-75
2021/01/23 10:23:58;;;;;;;6.97;2.45;;;;;;;19.21;46.51;99427.00;5048675;28;20020;-76
2021/01/23 10:26:23;;;;;;;4.35;1.40;;;;;;;19.28;46.18;99425.88;5074422;28;20066;-72
2021/01/23 10:28:49;;;;;;;4.72;1.55;;;;;;;19.40;46.20;99438.63;5058045;28;20024;-73
2021/01/23 10:31:14;;;;;;;3.72;1.35;;;;;;;19.30;46.68;99439.81;5075411;28;20379;-73
2021/01/23 10:33:40;;;;;;;4.82;1.98;;;;;;;19.32;46.52;99435.38;5063700;28;20071;-73
2021/01/23 10:36:05;;;;;;;2.85;1.48;;;;;;;19.36;46.34;99434.34;5069341;28;20433;-73
2021/01/23 10:38:31;;;;;;;13.35;3.80;;;;;;;19.36;45.08;99428.25;5082334;28;20055;-73
2021/01/23 10:40:56;;;;;;;3.38;1.38;;;;;;;19.34;46.51;99433.56;5059802;28;20067;-73
2021/01/23 10:43:21;;;;;;;3.83;1.50;;;;;;;19.43;46.30;99438.53;5023583;28;20033;-72
2021/01/23 10:45:47;;;;;;;3.42;1.80;;;;;;;19.40;46.63;99436.00;5047960;28;20419;-72
2021/01/23 10:48:14;;;;;;;4.85;1.65;;;;;;;19.37;46.49;99446.56;5071697;28;20529;-72
2021/01/23 10:50:39;;;;;;;4.15;1.50;;;;;;;19.30;46.69;99431.94;5048631;28;20029;-74
2021/01/23 10:53:04;;;;;;;3.17;1.55;;;;;;;19.38;46.87;99437.78;5055497;28;20036;-72
2021/01/23 10:55:30;;;;;;;4.13;1.73;;;;;;;19.37;46.97;99435.22;5079490;28;20066;-72
2021/01/23 10:57:55;;;;;;;4.78;1.55;;;;;;;19.40;46.61;99443.00;5042359;28;20044;-71
2021/01/23 11:00:21;;;;;;;3.53;1.58;;;;;;;19.44;46.69;99440.25;5058941;28;20566;-71
2021/01/23 11:02:47;;;;;;;3.30;1.30;;;;;;;19.43;46.75;99446.38;5060431;28;20033;-71
2021/01/23 11:05:14;;;;;;;5.47;1.65;;;;;;;19.41;46.84;99440.34;5062975;28;20391;-71
2021/01/23 11:07:39;;;;;;;3.22;1.80;;;;;;;19.44;46.73;99437.63;5060962;28;20039;-78
2021/01/23 11:10:06;;;;;;;3.25;1.35;;;;;;;19.44;46.75;99442.88;5059985;28;20016;-78
2021/01/23 11:12:33;;;;;;;5.20;1.77;;;;;;;19.43;46.94;99451.63;5057851;28;20036;-79
2021/01/23 11:15:00;;;;;;;3.08;1.83;;;;;;;19.44;46.87;99442.88;5058521;28;20043;-78
2021/01/23 11:17:25;;;;;;;3.10;1.25;;;;;;;19.44;46.80;99444.63;5054990;28;20474;-78
2021/01/23 11:19:52;;;;;;;2.88;1.23;;;;;;;19.43;46.96;99451.63;5073345;28;20043;-78
2021/01/23 11:22:17;;;;;;;4.13;1.60;;;;;;;19.43;46.80;99456.00;5041855;28;20478;-79
2021/01/23 11:24:43;;;;;;;4.18;1.42;;;;;;;19.41;46.77;99450.81;5081228;28;20119;-79
2021/01/23 11:27:09;;;;;;;2.88;1.27;;;;;;;19.42;47.13;99460.41;5078064;28;20032;-79
2021/01/23 11:29:35;;;;;;;2.92;1.25;;;;;;;19.41;46.84;99452.59;5076623;28;20153;-79
2021/01/23 11:32:01;;;;;;;4.03;1.70;;;;;;;19.45;46.61;99460.31;5076475;28;20024;-78
2021/01/23 11:34:27;;;;;;;3.45;1.15;;;;;;;19.44;46.83;99452.50;5078058;28;20075;-79
2021/01/23 11:36:52;;;;;;;2.45;1.35;;;;;;;19.43;46.78;99451.63;5056452;28;20436;-77
2021/01/23 11:39:17;;;;;;;2.22;1.40;;;;;;;19.46;46.66;99443.69;5063640;28;20611;-79